Terminal Aerodrome Forecast
Issued by NWS

Home | Current Version | Previous Version | Text Only | Print | Product List | Glossary Off
Versions: 1 2 3 4 5 6 7 8 9 10 11 12 13 14 15 16 17

000
FTUS43 KFGF 211723
TAFBJI
TAF
KBJI 211723Z 2118/2218 15007KT P6SM FEW060
     FM220100 14006KT P6SM FEW250
     FM221400 16012G22KT P6SM FEW070 SCT250=

USA.gov is the U.S. government's official web portal to all federal, state and local government web resources and services.